Bookmark and Share
Track history (hours):
 

MOL Dawn

Last reported at 2014-Apr-18 08:33 UTC. Time now 2014-Apr-19 12:10 UTC.
Position N 23°42' E 118°20'.

Length 269 m; draft 10.8 m.

Type: Cargo ship. MMSI: 565567000.

NotesDate/timePositionNaut miles runAvg speedWind from/ knotsBaromVisibWave heightAir tempDewpointWater temp
2014-Apr-18 08:33N 23°42' E 118°20'1818.3
2014-Apr-18 07:33N 23°32' E 118°04'1918.6
2014-Apr-18 06:33N 23°22' E 117°47'3919.5
2014-Apr-18 04:33N 23°04' E 117°09'2020.1
2014-Apr-18 03:33N 22°55' E 116°49'2020.2
2014-Apr-18 02:33N 22°45' E 116°30'137 4.9
2014-Apr-16 22:29N 22°18' E 114°05'0 0.0
2014-Apr-16 15:17N 22°18' E 114°05'4 1.8
2014-Apr-16 13:09N 22°21' E 114°02'712.1
2014-Apr-16 12:33N 22°23' E 113°54'5 4.6
2014-Apr-16 11:33N 22°27' E 113°54'0 0.2
2014-Apr-16 10:29N 22°27' E 113°53'0 0.0
2014-Apr-16 09:29N 22°27' E 113°53'0 0.0
2014-Apr-16 08:29N 22°27' E 113°53'0 0.0
2014-Apr-16 07:29N 22°27' E 113°53'0 0.0
2014-Apr-16 06:29N 22°27' E 113°53'0 0.0
2014-Apr-16 05:29N 22°27' E 113°53'0 0.1
2014-Apr-16 04:29N 22°27' E 113°53'0 0.1
2014-Apr-16 03:29N 22°27' E 113°53'0 0.0
2014-Apr-16 02:29N 22°27' E 113°53'0 0.0
2014-Apr-16 01:29N 22°27' E 113°53'0 0.0
2014-Apr-16 00:29N 22°27' E 113°53'0 0.1
2014-Apr-15 23:23N 22°27' E 113°53'4 4.7
2014-Apr-15 22:33N 22°23' E 113°54'11 9.7
2014-Apr-15 21:27N 22°20' E 114°05'11 9.2
2014-Apr-15 20:16N 22°11' E 114°12'  
2014-Apr-09 23:29N 01°15' E 104°04'1111.5
2014-Apr-09 22:33N 01°13' E 103°54'4 0.3
2014-Apr-09 09:27N 01°16' E 103°51'3 2.9
2014-Apr-09 08:34N 01°14' E 103°53'6 5.7
2014-Apr-09 07:33N 01°10' E 103°49'1110.9
2014-Apr-09 06:34N 01°03' E 103°40'8 7.1
2014-Apr-09 05:30N 01°05' E 103°33'  

Dump ship's entire track history

sailing weather and tide predictions

MOL Dawn — 9VJJ6 — position and weather